Time;durP1;ratioP1;P1;durP2;ratioP2;P2;SDS_P1;SDS_P2;PMS_P1;PMS_P2;Temp;Humidity;BMP_temperature;BMP_pressure;BME280_temperature;BME280_humidity;BME280_pressure;Samples;Min_cycle;Max_cycle;Signal;HPM_P1;HPM_P2
2021/12/18 00:00:13;;;;;;;3.60;3.30;;;;;;;;;;5158683;27;20260;-68
2021/12/18 00:03:00;;;;;;;3.43;3.23;;;;;;;;;;5150776;27;20737;-68
2021/12/18 00:05:46;;;;;;;3.70;3.40;;;;;;;;;;5152149;27;20242;-68
2021/12/18 00:08:33;;;;;;;3.10;2.90;;;;;;;;;;5152484;27;20264;-68
2021/12/18 00:11:20;;;;;;;3.33;3.13;;;;;;;;;;5147979;27;20210;-67
2021/12/18 00:14:07;;;;;;;3.63;3.33;;;;;;;;;;5153787;27;20294;-67
2021/12/18 00:16:56;;;;;;;3.40;3.20;;;;;;;;;;5154522;27;20238;-67
2021/12/18 00:19:43;;;;;;;3.90;3.40;;;;;;;;;;5161345;27;20246;-68
2021/12/18 00:22:29;;;;;;;3.27;3.07;;;;;;;;;;5169952;27;20288;-67
2021/12/18 00:25:16;;;;;;;3.20;3.00;;;;;;;;;;5155962;27;20417;-68
2021/12/18 00:28:04;;;;;;;3.13;2.93;;;;;;;;;;5138667;27;20233;-68
2021/12/18 00:30:51;;;;;;;2.97;2.80;;;;;;;;;;5152907;27;20251;-68
2021/12/18 00:33:39;;;;;;;3.30;3.10;;;;;;;;;;5150945;27;20214;-67
2021/12/18 00:36:26;;;;;;;3.10;2.90;;;;;;;;;;5164032;27;20228;-67
2021/12/18 00:39:13;;;;;;;2.73;2.60;;;;;;;;;;5155449;27;20243;-68
2021/12/18 00:42:08;;;;;;;2.87;2.67;;;;;;;;;;5147905;27;20293;-67
2021/12/18 00:44:55;;;;;;;2.80;2.70;;;;;;;;;;5160820;27;20222;-67
2021/12/18 00:47:43;;;;;;;3.00;2.80;;;;;;;;;;5158546;27;20293;-67
2021/12/18 00:50:31;;;;;;;3.17;2.87;;;;;;;;;;5150703;27;20281;-68
2021/12/18 00:53:19;;;;;;;2.87;2.67;;;;;;;;;;5136080;27;20321;-67
2021/12/18 00:56:06;;;;;;;2.80;2.60;;;;;;;;;;5150937;27;20293;-68
2021/12/18 00:58:53;;;;;;;2.63;2.53;;;;;;;;;;5149294;27;20219;-67
2021/12/18 01:01:40;;;;;;;2.60;2.50;;;;;;;;;;5138908;27;20592;-67
2021/12/18 01:04:27;;;;;;;2.67;2.57;;;;;;;;;;5159230;27;20220;-67
2021/12/18 01:07:16;;;;;;;2.80;2.60;;;;;;;;;;5143797;27;20690;-67
2021/12/18 01:10:15;;;;;;;2.53;2.43;;;;;;;;;;5164444;27;20217;-67
2021/12/18 01:13:06;;;;;;;2.50;2.40;;;;;;;;;;5157031;27;20337;-67
2021/12/18 01:15:56;;;;;;;2.43;2.33;;;;;;;;;;5155124;27;20289;-67
2021/12/18 01:25:05;;;;;;;2.60;2.50;;;;;;;;;;5149668;27;20223;-68
2021/12/18 01:27:52;;;;;;;2.50;2.40;;;;;;;;;;5149914;27;20708;-68
2021/12/18 01:30:39;;;;;;;2.90;2.80;;;;;;;;;;5162943;27;20691;-68
2021/12/18 01:33:26;;;;;;;2.60;2.50;;;;;;;;;;5150590;27;20213;-67
2021/12/18 01:36:13;;;;;;;2.40;2.30;;;;;;;;;;5134090;27;20809;-67
2021/12/18 01:39:02;;;;;;;2.50;2.40;;;;;;;;;;5150134;27;20377;-67
2021/12/18 01:42:08;;;;;;;2.70;2.50;;;;;;;;;;5147074;27;20207;-67
2021/12/18 01:45:03;;;;;;;2.60;2.50;;;;;;;;;;5134417;27;20750;-67
2021/12/18 01:53:59;;;;;;;2.50;2.40;;;;;;;;;;5149013;27;20207;-67
2021/12/18 01:56:46;;;;;;;2.50;2.30;;;;;;;;;;5157072;27;20726;-68
2021/12/18 01:59:37;;;;;;;2.63;2.53;;;;;;;;;;5150290;27;20673;-68
2021/12/18 02:02:24;;;;;;;2.33;2.23;;;;;;;;;;5156857;27;20229;-64
2021/12/18 02:05:11;;;;;;;2.30;2.20;;;;;;;;;;5163073;27;20310;-64
2021/12/18 02:07:58;;;;;;;2.03;1.93;;;;;;;;;;5151621;27;20253;-65
2021/12/18 02:10:48;;;;;;;2.33;2.23;;;;;;;;;;5137273;27;20286;-65
2021/12/18 02:13:59;;;;;;;2.53;2.43;;;;;;;;;;5149426;27;20203;-64
2021/12/18 02:19:58;;;;;;;2.37;2.27;;;;;;;;;;5141680;27;20209;-64
2021/12/18 02:22:47;;;;;;;2.40;2.30;;;;;;;;;;5164170;27;20205;-64
2021/12/18 02:25:36;;;;;;;2.33;2.23;;;;;;;;;;5149225;27;20228;-64
2021/12/18 02:28:25;;;;;;;2.53;2.43;;;;;;;;;;5149385;27;20457;-64
2021/12/18 02:31:13;;;;;;;2.40;2.30;;;;;;;;;;5160564;27;20208;-64
2021/12/18 02:34:01;;;;;;;2.50;2.40;;;;;;;;;;5148320;27;20210;-64
2021/12/18 02:36:49;;;;;;;2.30;2.20;;;;;;;;;;5150237;27;20211;-64
2021/12/18 02:39:55;;;;;;;2.40;2.30;;;;;;;;;;5150825;27;20588;-64
2021/12/18 02:42:42;;;;;;;2.40;2.30;;;;;;;;;;5148529;27;20205;-64
2021/12/18 02:45:29;;;;;;;2.40;2.30;;;;;;;;;;5148808;27;20230;-64
2021/12/18 02:48:16;;;;;;;2.43;2.33;;;;;;;;;;5152860;27;20236;-64
2021/12/18 02:51:05;;;;;;;2.60;2.50;;;;;;;;;;5149654;27;20233;-64
2021/12/18 02:53:54;;;;;;;2.47;2.37;;;;;;;;;;5148843;27;20293;-64
2021/12/18 02:56:42;;;;;;;2.63;2.50;;;;;;;;;;5148354;27;20254;-64
2021/12/18 02:59:29;;;;;;;2.60;2.40;;;;;;;;;;5149220;27;20286;-64
2021/12/18 03:02:17;;;;;;;2.30;2.20;;;;;;;;;;5144462;27;20723;-64
2021/12/18 03:05:07;;;;;;;2.30;2.20;;;;;;;;;;5157977;27;20664;-64
2021/12/18 03:08:08;;;;;;;2.17;2.07;;;;;;;;;;5151173;27;20685;-63
2021/12/18 03:21:13;;;;;;;2.37;2.27;;;;;;;;;;5150496;27;20220;-64
2021/12/18 03:23:48;;;;;;;2.13;2.03;;;;;;;;;;5133917;27;20202;-64
2021/12/18 03:26:34;;;;;;;2.60;2.40;;;;;;;;;;5158383;27;20285;-64
2021/12/18 03:29:23;;;;;;;2.37;2.27;;;;;;;;;;5148935;27;20380;-65
2021/12/18 03:32:10;;;;;;;2.60;2.50;;;;;;;;;;5135309;27;20246;-64
2021/12/18 03:34:57;;;;;;;2.53;2.43;;;;;;;;;;5152749;27;20233;-65
2021/12/18 03:37:44;;;;;;;2.30;2.20;;;;;;;;;;5148171;27;20548;-64
2021/12/18 03:40:31;;;;;;;2.60;2.50;;;;;;;;;;5149276;27;20363;-64
2021/12/18 03:43:19;;;;;;;2.30;2.20;;;;;;;;;;5149260;27;20297;-64
2021/12/18 03:46:07;;;;;;;6.63;2.10;;;;;;;;;;5148591;27;20317;-65
2021/12/18 03:48:54;;;;;;;2.30;2.20;;;;;;;;;;5152996;27;20678;-64
2021/12/18 03:51:41;;;;;;;2.40;2.30;;;;;;;;;;5153916;27;20224;-64
2021/12/18 03:54:28;;;;;;;2.37;2.27;;;;;;;;;;5150708;27;20204;-65
2021/12/18 03:57:14;;;;;;;2.10;2.00;;;;;;;;;;5163639;27;20282;-64
2021/12/18 04:00:01;;;;;;;2.20;2.10;;;;;;;;;;5147968;27;20286;-64
2021/12/18 04:02:50;;;;;;;2.30;2.20;;;;;;;;;;5148912;27;20255;-65
2021/12/18 04:05:38;;;;;;;1.97;1.87;;;;;;;;;;5160683;27;20232;-64
2021/12/18 04:08:24;;;;;;;2.03;1.93;;;;;;;;;;5147252;27;20209;-65
2021/12/18 04:11:12;;;;;;;2.20;2.10;;;;;;;;;;5145258;27;20423;-64
2021/12/18 04:13:59;;;;;;;2.10;2.00;;;;;;;;;;5165657;27;20261;-64
2021/12/18 04:16:46;;;;;;;2.00;1.90;;;;;;;;;;5155925;27;20210;-65
2021/12/18 04:19:35;;;;;;;1.80;1.70;;;;;;;;;;5136378;27;20320;-64
2021/12/18 04:22:22;;;;;;;2.03;1.97;;;;;;;;;;5152381;27;20229;-65
2021/12/18 04:25:09;;;;;;;2.20;2.10;;;;;;;;;;5150176;27;20264;-64
2021/12/18 04:27:56;;;;;;;1.53;1.53;;;;;;;;;;5163841;27;20686;-64
2021/12/18 04:30:43;;;;;;;1.77;1.70;;;;;;;;;;5159160;27;20661;-64
2021/12/18 04:33:30;;;;;;;1.87;1.77;;;;;;;;;;5158261;27;20253;-64
2021/12/18 04:36:19;;;;;;;1.50;1.50;;;;;;;;;;5153012;27;20687;-66
2021/12/18 04:39:06;;;;;;;1.80;1.80;;;;;;;;;;5150185;27;20265;-64
2021/12/18 04:41:57;;;;;;;1.80;1.70;;;;;;;;;;5150603;27;20685;-64
2021/12/18 04:44:44;;;;;;;1.67;1.57;;;;;;;;;;5157262;27;20219;-65
2021/12/18 04:47:31;;;;;;;1.37;1.37;;;;;;;;;;5151202;27;20209;-64
2021/12/18 04:50:18;;;;;;;1.60;1.60;;;;;;;;;;5149552;27;20576;-63
2021/12/18 04:53:06;;;;;;;1.10;1.10;;;;;;;;;;5158533;27;20323;-64
2021/12/18 04:55:53;;;;;;;1.40;1.40;;;;;;;;;;5152374;27;20224;-64
2021/12/18 04:58:40;;;;;;;1.77;1.67;;;;;;;;;;5163323;27;20214;-65
2021/12/18 05:01:27;;;;;;;1.47;1.43;;;;;;;;;;5153717;27;20321;-64
2021/12/18 05:04:14;;;;;;;1.50;1.50;;;;;;;;;;5149716;27;20226;-64
2021/12/18 05:07:01;;;;;;;1.30;1.30;;;;;;;;;;5136946;27;20241;-64
2021/12/18 05:09:50;;;;;;;1.30;1.30;;;;;;;;;;5151333;27;20215;-63
2021/12/18 05:12:37;;;;;;;1.53;1.50;;;;;;;;;;5145589;27;20575;-64
2021/12/18 05:15:24;;;;;;;1.60;1.50;;;;;;;;;;5134918;27;20204;-64
2021/12/18 05:18:11;;;;;;;1.60;1.50;;;;;;;;;;5159741;27;20353;-64
2021/12/18 05:20:58;;;;;;;1.47;1.47;;;;;;;;;;5157425;27;20291;-64
2021/12/18 05:23:45;;;;;;;1.60;1.57;;;;;;;;;;5150837;27;20700;-64
2021/12/18 05:26:33;;;;;;;1.70;1.60;;;;;;;;;;5158464;27;20293;-64
2021/12/18 05:29:20;;;;;;;1.63;1.63;;;;;;;;;;5147909;27;20770;-64
2021/12/18 05:32:08;;;;;;;1.40;1.40;;;;;;;;;;5165152;27;20380;-64
2021/12/18 05:34:55;;;;;;;1.60;1.60;;;;;;;;;;5149431;27;20614;-64
2021/12/18 05:37:48;;;;;;;1.20;1.20;;;;;;;;;;5148754;27;20712;-64
2021/12/18 05:40:37;;;;;;;1.40;1.40;;;;;;;;;;5168479;27;20292;-64
2021/12/18 05:43:26;;;;;;;1.77;1.67;;;;;;;;;;5152014;27;20266;-64
2021/12/18 05:46:12;;;;;;;1.27;1.27;;;;;;;;;;5149762;27;20219;-64
2021/12/18 05:48:59;;;;;;;1.47;1.47;;;;;;;;;;5165434;27;20304;-64
2021/12/18 05:51:47;;;;;;;1.40;1.40;;;;;;;;;;5151877;27;20649;-64
2021/12/18 05:54:35;;;;;;;1.63;1.63;;;;;;;;;;5136339;27;20202;-64
2021/12/18 05:57:23;;;;;;;1.50;1.50;;;;;;;;;;5161647;27;20257;-64
2021/12/18 06:00:13;;;;;;;1.60;1.60;;;;;;;;;;5151805;27;20678;-64
2021/12/18 06:03:00;;;;;;;1.73;1.63;;;;;;;;;;5135788;27;20199;-64
2021/12/18 06:05:47;;;;;;;1.40;1.40;;;;;;;;;;5161720;27;20260;-64
2021/12/18 06:08:35;;;;;;;1.83;1.73;;;;;;;;;;5151466;27;20234;-64
2021/12/18 06:11:23;;;;;;;1.40;1.40;;;;;;;;;;5141812;27;20663;-65
2021/12/18 06:14:10;;;;;;;1.30;1.30;;;;;;;;;;5150408;27;20224;-64
2021/12/18 06:16:58;;;;;;;1.30;1.30;;;;;;;;;;5147458;27;20306;-64
2021/12/18 06:19:45;;;;;;;1.40;1.30;;;;;;;;;;5141024;27;20205;-64
2021/12/18 06:22:32;;;;;;;1.47;1.47;;;;;;;;;;5156049;27;20688;-64
2021/12/18 06:25:19;;;;;;;1.30;1.30;;;;;;;;;;5157310;27;20274;-64
2021/12/18 06:28:06;;;;;;;1.50;1.50;;;;;;;;;;5160142;27;20258;-64
2021/12/18 06:30:54;;;;;;;1.30;1.30;;;;;;;;;;5148823;27;20206;-64
2021/12/18 06:33:42;;;;;;;1.37;1.37;;;;;;;;;;5140335;27;20271;-64
2021/12/18 06:36:29;;;;;;;1.33;1.33;;;;;;;;;;5156359;27;20255;-64
2021/12/18 06:39:16;;;;;;;1.30;1.30;;;;;;;;;;5152345;27;20214;-64
2021/12/18 06:42:03;;;;;;;0.97;0.97;;;;;;;;;;5161710;27;20212;-64
2021/12/18 06:44:50;;;;;;;1.10;1.10;;;;;;;;;;5150184;27;20287;-64
2021/12/18 06:47:37;;;;;;;1.00;1.00;;;;;;;;;;5149083;27;20210;-64
2021/12/18 06:50:26;;;;;;;1.10;1.10;;;;;;;;;;5163451;27;20243;-64
2021/12/18 06:53:13;;;;;;;1.00;1.00;;;;;;;;;;5148682;27;20677;-64
2021/12/18 06:56:00;;;;;;;1.27;1.27;;;;;;;;;;5148577;27;20226;-65
2021/12/18 06:58:47;;;;;;;1.10;1.10;;;;;;;;;;5148692;27;20248;-64
2021/12/18 07:01:34;;;;;;;0.93;0.93;;;;;;;;;;5159593;27;20304;-64
2021/12/18 07:04:22;;;;;;;1.13;1.13;;;;;;;;;;5152534;27;20318;-64
2021/12/18 07:07:11;;;;;;;0.83;0.83;;;;;;;;;;5149234;27;20258;-65
2021/12/18 07:09:58;;;;;;;1.10;1.10;;;;;;;;;;5149950;27;20202;-64
2021/12/18 07:12:45;;;;;;;1.00;1.00;;;;;;;;;;5144850;27;20240;-65
2021/12/18 07:15:32;;;;;;;0.80;0.80;;;;;;;;;;5169855;27;20230;-63
2021/12/18 07:18:19;;;;;;;0.87;0.87;;;;;;;;;;5155453;27;20289;-63
2021/12/18 07:21:06;;;;;;;0.90;0.90;;;;;;;;;;5156491;27;20233;-64
2021/12/18 07:23:54;;;;;;;0.90;0.90;;;;;;;;;;5167206;27;20282;-64
2021/12/18 07:26:41;;;;;;;0.90;0.90;;;;;;;;;;5152019;27;20792;-64
2021/12/18 07:29:28;;;;;;;1.00;1.00;;;;;;;;;;5148108;27;20729;-64
2021/12/18 07:32:15;;;;;;;1.10;1.10;;;;;;;;;;5149834;27;20203;-64
2021/12/18 07:35:02;;;;;;;0.90;0.90;;;;;;;;;;5150215;27;20716;-64
2021/12/18 07:37:49;;;;;;;1.00;1.00;;;;;;;;;;5161604;27;20658;-64
2021/12/18 07:40:37;;;;;;;1.20;1.20;;;;;;;;;;5162935;27;20332;-63
2021/12/18 07:43:24;;;;;;;1.10;1.10;;;;;;;;;;5149625;27;20237;-64
2021/12/18 07:46:11;;;;;;;0.90;0.90;;;;;;;;;;5152477;27;20233;-64
2021/12/18 07:48:58;;;;;;;1.03;1.03;;;;;;;;;;5164381;27;20238;-64
2021/12/18 07:51:45;;;;;;;1.03;1.03;;;;;;;;;;5157129;27;20301;-65
2021/12/18 07:54:32;;;;;;;1.10;1.10;;;;;;;;;;5136571;27;20224;-64
2021/12/18 07:57:20;;;;;;;1.10;1.10;;;;;;;;;;5158400;27;20217;-64
2021/12/18 08:00:10;;;;;;;0.97;0.97;;;;;;;;;;5156140;27;20280;-64
2021/12/18 08:02:57;;;;;;;1.10;1.10;;;;;;;;;;5159992;27;20210;-65
2021/12/18 08:05:44;;;;;;;1.10;1.10;;;;;;;;;;5160112;27;20311;-64
2021/12/18 08:08:31;;;;;;;1.10;1.10;;;;;;;;;;5161149;27;20235;-64
2021/12/18 08:11:18;;;;;;;2.30;1.00;;;;;;;;;;5152253;27;20217;-64
2021/12/18 08:14:06;;;;;;;0.80;0.80;;;;;;;;;;5155441;27;20632;-64
2021/12/18 08:16:53;;;;;;;1.10;1.10;;;;;;;;;;5161836;27;20237;-65
2021/12/18 08:19:40;;;;;;;0.93;0.93;;;;;;;;;;5161226;27;20282;-64
2021/12/18 08:22:27;;;;;;;1.40;1.30;;;;;;;;;;5149564;27;20599;-64
2021/12/18 08:25:14;;;;;;;0.87;0.87;;;;;;;;;;5140758;27;20310;-64
2021/12/18 08:28:02;;;;;;;1.03;1.03;;;;;;;;;;5158718;27;20203;-64
2021/12/18 08:30:51;;;;;;;0.93;0.93;;;;;;;;;;5152196;27;20290;-64
2021/12/18 08:33:38;;;;;;;1.03;1.03;;;;;;;;;;5137457;27;20214;-64
2021/12/18 08:36:25;;;;;;;0.83;0.83;;;;;;;;;;5154505;27;20713;-64
2021/12/18 08:39:11;;;;;;;0.83;0.83;;;;;;;;;;5151498;27;20319;-64
2021/12/18 08:42:02;;;;;;;1.03;1.03;;;;;;;;;;5134156;27;20251;-64
2021/12/18 08:44:49;;;;;;;0.83;0.83;;;;;;;;;;5152757;27;20260;-64
2021/12/18 08:47:38;;;;;;;1.03;1.03;;;;;;;;;;5151736;27;20218;-64
2021/12/18 08:50:25;;;;;;;0.97;0.97;;;;;;;;;;5155768;27;20284;-64
2021/12/18 08:53:12;;;;;;;0.80;0.80;;;;;;;;;;5160886;27;20245;-64
2021/12/18 08:55:59;;;;;;;0.80;0.80;;;;;;;;;;5156166;27;20209;-64
2021/12/18 08:58:46;;;;;;;0.83;0.83;;;;;;;;;;5169119;27;20695;-64
2021/12/18 09:01:33;;;;;;;0.90;0.90;;;;;;;;;;5153224;27;20625;-64
2021/12/18 09:04:22;;;;;;;0.80;0.80;;;;;;;;;;5158836;27;20228;-64
2021/12/18 09:07:09;;;;;;;1.00;1.00;;;;;;;;;;5169161;27;20251;-64
2021/12/18 09:09:56;;;;;;;1.00;1.00;;;;;;;;;;5148547;27;20254;-64
2021/12/18 09:12:43;;;;;;;0.73;0.73;;;;;;;;;;5142123;27;20303;-64
2021/12/18 09:15:30;;;;;;;1.00;0.90;;;;;;;;;;5136587;27;20291;-64
2021/12/18 09:18:16;;;;;;;0.90;0.90;;;;;;;;;;5152185;27;20345;-64
2021/12/18 09:21:05;;;;;;;0.80;0.80;;;;;;;;;;5153559;27;20205;-64
2021/12/18 09:23:52;;;;;;;0.90;0.90;;;;;;;;;;5153572;27;20206;-64
2021/12/18 09:26:39;;;;;;;0.90;0.90;;;;;;;;;;5148415;27;20309;-64
2021/12/18 09:29:26;;;;;;;0.90;0.90;;;;;;;;;;5150289;27;20198;-64
2021/12/18 09:32:13;;;;;;;0.70;0.70;;;;;;;;;;5151698;27;20285;-64
2021/12/18 09:35:00;;;;;;;0.83;0.83;;;;;;;;;;5150737;27;20228;-64
2021/12/18 09:37:49;;;;;;;0.90;0.90;;;;;;;;;;5152698;27;20277;-64
2021/12/18 09:40:36;;;;;;;0.80;0.80;;;;;;;;;;5160343;27;20282;-64
2021/12/18 09:43:23;;;;;;;0.80;0.80;;;;;;;;;;5155868;27;20309;-64
2021/12/18 09:46:13;;;;;;;0.90;0.90;;;;;;;;;;5170282;27;20768;-64
2021/12/18 09:49:01;;;;;;;0.70;0.70;;;;;;;;;;5152160;27;20275;-64
2021/12/18 09:51:48;;;;;;;0.90;0.90;;;;;;;;;;5149091;27;20273;-65
2021/12/18 09:54:37;;;;;;;0.97;0.97;;;;;;;;;;5158706;27;20231;-64
2021/12/18 09:57:24;;;;;;;0.60;0.60;;;;;;;;;;5149227;27;20743;-64
2021/12/18 10:00:14;;;;;;;0.97;0.97;;;;;;;;;;5150520;27;20213;-63
2021/12/18 10:03:01;;;;;;;0.80;0.80;;;;;;;;;;5169689;27;20295;-64
2021/12/18 10:05:48;;;;;;;0.70;0.70;;;;;;;;;;5153449;27;20218;-64
2021/12/18 10:08:41;;;;;;;0.90;0.90;;;;;;;;;;5139307;27;20355;-64
2021/12/18 10:11:29;;;;;;;0.73;0.73;;;;;;;;;;5144410;27;20329;-64
2021/12/18 10:14:17;;;;;;;0.80;0.80;;;;;;;;;;5148326;27;20730;-64
2021/12/18 10:17:06;;;;;;;0.80;0.80;;;;;;;;;;5149727;27;20332;-64
2021/12/18 10:19:55;;;;;;;0.77;0.77;;;;;;;;;;5164034;27;20245;-64
2021/12/18 10:22:45;;;;;;;1.27;1.17;;;;;;;;;;5150851;27;20737;-64
2021/12/18 10:25:37;;;;;;;1.23;1.23;;;;;;;;;;5163220;27;20210;-64
2021/12/18 10:28:29;;;;;;;1.57;1.47;;;;;;;;;;5150767;27;20199;-64
2021/12/18 10:31:16;;;;;;;1.23;1.23;;;;;;;;;;5152776;27;20225;-64
2021/12/18 10:34:14;;;;;;;1.33;1.30;;;;;;;;;;5163208;27;20246;-64
2021/12/18 10:37:17;;;;;;;1.37;1.30;;;;;;;;;;5163303;27;20297;-64
2021/12/18 10:40:08;;;;;;;1.43;1.43;;;;;;;;;;5152407;27;20256;-64
2021/12/18 10:42:55;;;;;;;1.30;1.30;;;;;;;;;;5157521;27;20245;-64
2021/12/18 10:45:44;;;;;;;1.30;1.30;;;;;;;;;;5155567;27;20215;-64
2021/12/18 10:48:31;;;;;;;1.30;1.30;;;;;;;;;;5149655;27;20210;-64
2021/12/18 10:51:23;;;;;;;1.50;1.40;;;;;;;;;;5155003;27;20604;-64
2021/12/18 10:54:15;;;;;;;1.20;1.20;;;;;;;;;;5159997;27;20338;-64
2021/12/18 10:57:02;;;;;;;1.10;1.10;;;;;;;;;;5151879;27;20756;-64
2021/12/18 10:59:52;;;;;;;1.33;1.33;;;;;;;;;;5160523;27;20211;-64
2021/12/18 11:02:43;;;;;;;1.30;1.30;;;;;;;;;;5161870;27;20320;-64
2021/12/18 11:05:30;;;;;;;1.37;1.37;;;;;;;;;;5151903;27;20611;-63
2021/12/18 11:08:16;;;;;;;1.13;1.13;;;;;;;;;;5134891;27;20794;-64
2021/12/18 11:14:09;;;;;;;0.93;0.93;;;;;;;;;;5148676;27;20242;-64
2021/12/18 11:17:00;;;;;;;1.20;1.20;;;;;;;;;;5134238;27;20226;-64
2021/12/18 11:19:50;;;;;;;1.10;1.10;;;;;;;;;;5166418;27;20586;-65
2021/12/18 11:22:38;;;;;;;1.10;1.10;;;;;;;;;;5153350;27;20298;-64
2021/12/18 11:25:25;;;;;;;1.10;1.10;;;;;;;;;;5136960;27;20501;-64
2021/12/18 11:28:14;;;;;;;1.30;1.30;;;;;;;;;;5153894;27;20306;-64
2021/12/18 11:31:02;;;;;;;1.03;1.03;;;;;;;;;;5149833;27;20230;-64
2021/12/18 11:33:49;;;;;;;0.80;0.80;;;;;;;;;;5152309;27;20658;-65
2021/12/18 11:36:41;;;;;;;0.80;0.80;;;;;;;;;;5161383;27;20196;-64
2021/12/18 11:39:31;;;;;;;0.70;0.70;;;;;;;;;;5159925;27;20257;-64
2021/12/18 11:42:19;;;;;;;0.80;0.80;;;;;;;;;;5159476;27;20238;-64
2021/12/18 11:45:07;;;;;;;1.00;1.00;;;;;;;;;;5157250;27;20672;-64
2021/12/18 11:47:56;;;;;;;1.00;1.00;;;;;;;;;;5144663;27;20714;-64
2021/12/18 11:50:45;;;;;;;0.80;0.80;;;;;;;;;;5162706;27;20258;-64
2021/12/18 11:53:36;;;;;;;0.90;0.90;;;;;;;;;;5158264;27;20210;-64
2021/12/18 11:56:25;;;;;;;0.60;0.60;;;;;;;;;;5160608;27;20224;-65
2021/12/18 11:59:12;;;;;;;0.77;0.77;;;;;;;;;;5172203;27;20304;-64
2021/12/18 12:01:59;;;;;;;0.73;0.73;;;;;;;;;;5157346;27;20258;-64
2021/12/18 12:05:00;;;;;;;0.70;0.70;;;;;;;;;;5149109;27;20275;-64
2021/12/18 12:07:50;;;;;;;0.90;0.90;;;;;;;;;;5164565;27;20350;-64
2021/12/18 12:10:48;;;;;;;0.60;0.60;;;;;;;;;;5151810;27;20569;-64
2021/12/18 12:14:08;;;;;;;0.80;0.80;;;;;;;;;;5153708;27;20297;-64
2021/12/18 12:17:15;;;;;;;0.80;0.80;;;;;;;;;;5150913;27;20201;-64
2021/12/18 12:20:05;;;;;;;0.80;0.80;;;;;;;;;;5153214;27;20729;-64
2021/12/18 12:23:01;;;;;;;0.63;0.63;;;;;;;;;;5151846;27;20569;-64
2021/12/18 12:25:51;;;;;;;0.50;0.50;;;;;;;;;;5138875;27;20206;-64
2021/12/18 12:28:52;;;;;;;0.80;0.80;;;;;;;;;;5153381;27;20626;-65
2021/12/18 12:31:54;;;;;;;0.90;0.90;;;;;;;;;;5149919;27;20290;-64
2021/12/18 12:34:44;;;;;;;0.90;0.90;;;;;;;;;;5159842;27;20287;-64
2021/12/18 12:37:34;;;;;;;1.00;1.00;;;;;;;;;;5165884;27;20192;-64
2021/12/18 12:40:34;;;;;;;1.13;1.13;;;;;;;;;;5152827;27;20201;-64
2021/12/18 12:43:26;;;;;;;1.20;1.20;;;;;;;;;;5156592;27;20209;-64
2021/12/18 12:46:17;;;;;;;1.10;1.10;;;;;;;;;;5154650;27;20263;-64
2021/12/18 12:49:07;;;;;;;0.90;0.90;;;;;;;;;;5153664;27;20214;-65
2021/12/18 12:52:03;;;;;;;1.30;1.30;;;;;;;;;;5162541;27;20205;-64
2021/12/18 12:54:54;;;;;;;1.00;1.00;;;;;;;;;;5167792;27;20200;-64
2021/12/18 12:57:44;;;;;;;1.20;1.20;;;;;;;;;;5150565;27;20201;-62
2021/12/18 13:00:52;;;;;;;1.00;1.00;;;;;;;;;;5151053;27;20287;-64
2021/12/18 13:03:46;;;;;;;1.10;1.10;;;;;;;;;;5169384;27;20679;-64
2021/12/18 13:06:33;;;;;;;1.00;1.00;;;;;;;;;;5157070;27;20690;-64
2021/12/18 13:09:20;;;;;;;1.13;1.13;;;;;;;;;;5159627;27;20659;-64
2021/12/18 13:12:07;;;;;;;0.90;0.90;;;;;;;;;;5151245;27;20201;-64
2021/12/18 13:14:56;;;;;;;0.90;0.90;;;;;;;;;;5154142;27;20664;-64
2021/12/18 13:17:45;;;;;;;0.90;0.90;;;;;;;;;;5158766;27;20279;-64
2021/12/18 13:20:41;;;;;;;1.10;1.10;;;;;;;;;;5156890;27;20759;-64
2021/12/18 13:23:52;;;;;;;0.70;0.70;;;;;;;;;;5153229;27;20649;-64
2021/12/18 13:26:41;;;;;;;0.70;0.70;;;;;;;;;;5158628;27;20216;-64
2021/12/18 13:29:28;;;;;;;0.80;0.80;;;;;;;;;;5169361;27;20284;-64
2021/12/18 13:32:15;;;;;;;1.00;1.00;;;;;;;;;;5155864;27;20662;-64
2021/12/18 13:35:13;;;;;;;1.00;1.00;;;;;;;;;;5158039;27;20257;-64
2021/12/18 13:38:03;;;;;;;0.87;0.87;;;;;;;;;;5165251;27;20198;-64
2021/12/18 13:40:51;;;;;;;0.93;0.93;;;;;;;;;;5155866;27;20206;-64
2021/12/18 13:43:38;;;;;;;0.90;0.90;;;;;;;;;;5154506;27;20278;-64
2021/12/18 13:46:30;;;;;;;0.97;0.93;;;;;;;;;;5161656;27;20310;-64
2021/12/18 13:49:17;;;;;;;1.00;1.00;;;;;;;;;;5150852;27;20241;-64
2021/12/18 13:52:06;;;;;;;0.97;0.97;;;;;;;;;;5162874;27;20210;-64
2021/12/18 13:54:53;;;;;;;1.00;1.00;;;;;;;;;;5153434;27;20282;-65
2021/12/18 13:57:40;;;;;;;1.10;1.10;;;;;;;;;;5148061;27;20296;-64
2021/12/18 14:00:27;;;;;;;1.00;1.00;;;;;;;;;;5150723;27;20812;-64
2021/12/18 14:03:18;;;;;;;0.93;0.93;;;;;;;;;;5153960;27;20321;-64
2021/12/18 14:06:14;;;;;;;1.10;1.10;;;;;;;;;;5150144;27;20231;-64
2021/12/18 14:09:08;;;;;;;1.10;1.10;;;;;;;;;;5156025;27;20242;-64
2021/12/18 14:12:05;;;;;;;1.17;1.17;;;;;;;;;;5152249;27;20804;-64
2021/12/18 14:14:54;;;;;;;0.90;0.90;;;;;;;;;;5145862;27;20345;-64
2021/12/18 14:17:41;;;;;;;1.00;1.00;;;;;;;;;;5163407;27;20665;-64
2021/12/18 14:20:28;;;;;;;0.80;0.80;;;;;;;;;;5148498;27;20218;-64
2021/12/18 14:23:16;;;;;;;1.00;1.00;;;;;;;;;;5145684;27;20236;-64
2021/12/18 14:26:29;;;;;;;0.80;0.80;;;;;;;;;;5155150;27;20942;-64
2021/12/18 14:29:18;;;;;;;0.90;0.90;;;;;;;;;;5140247;27;20785;-64
2021/12/18 14:32:06;;;;;;;1.00;1.00;;;;;;;;;;5146533;27;20205;-64
2021/12/18 14:35:03;;;;;;;0.83;0.83;;;;;;;;;;5158712;27;20287;-64
2021/12/18 14:37:56;;;;;;;1.00;1.00;;;;;;;;;;5134515;27;20281;-66
2021/12/18 14:40:43;;;;;;;0.90;0.90;;;;;;;;;;5148759;27;20747;-64
2021/12/18 14:43:32;;;;;;;1.00;1.00;;;;;;;;;;5150300;27;20288;-64
2021/12/18 14:46:19;;;;;;;1.00;1.00;;;;;;;;;;5152220;27;20288;-64
2021/12/18 14:49:10;;;;;;;0.90;0.90;;;;;;;;;;5153479;27;20286;-64
2021/12/18 14:52:00;;;;;;;0.90;0.90;;;;;;;;;;5149755;27;20227;-64
2021/12/18 14:54:49;;;;;;;1.00;1.00;;;;;;;;;;5161488;27;20712;-64
2021/12/18 14:57:36;;;;;;;1.10;1.10;;;;;;;;;;5147787;27;20207;-64
2021/12/18 15:00:27;;;;;;;0.90;0.90;;;;;;;;;;5134801;27;20678;-64
2021/12/18 15:03:17;;;;;;;1.30;1.30;;;;;;;;;;5160874;27;20221;-64
2021/12/18 15:06:09;;;;;;;1.20;1.20;;;;;;;;;;5152560;27;20209;-64
2021/12/18 15:08:59;;;;;;;1.17;1.17;;;;;;;;;;5148928;27;20703;-64
2021/12/18 15:11:48;;;;;;;1.03;1.03;;;;;;;;;;5147291;27;20217;-64
2021/12/18 15:14:36;;;;;;;1.00;1.00;;;;;;;;;;5143836;27;20292;-64
2021/12/18 15:17:25;;;;;;;1.07;1.07;;;;;;;;;;5148146;27;20207;-64
2021/12/18 15:20:11;;;;;;;1.00;1.00;;;;;;;;;;5150256;27;20242;-64
2021/12/18 15:22:58;;;;;;;1.30;1.30;;;;;;;;;;5143071;27;20240;-65
2021/12/18 15:25:45;;;;;;;1.20;1.20;;;;;;;;;;5156564;27;20225;-64
2021/12/18 15:28:32;;;;;;;1.00;1.00;;;;;;;;;;5154242;27;20240;-64
2021/12/18 15:31:19;;;;;;;1.00;1.00;;;;;;;;;;5149883;27;20251;-64
2021/12/18 15:34:10;;;;;;;1.30;1.30;;;;;;;;;;5162027;27;20230;-64
2021/12/18 15:36:59;;;;;;;1.23;1.23;;;;;;;;;;5153691;27;20217;-64
2021/12/18 15:39:46;;;;;;;1.17;1.17;;;;;;;;;;5156328;27;20657;-66
2021/12/18 15:42:33;;;;;;;1.30;1.30;;;;;;;;;;5150604;27;20201;-65
2021/12/18 15:45:20;;;;;;;1.33;1.33;;;;;;;;;;5142688;27;20716;-64
2021/12/18 15:48:07;;;;;;;1.53;1.53;;;;;;;;;;5160835;27;20218;-64
2021/12/18 15:50:56;;;;;;;1.27;1.27;;;;;;;;;;5162321;27;20334;-64
2021/12/18 15:53:44;;;;;;;1.10;1.10;;;;;;;;;;5149340;27;20245;-64
2021/12/18 15:56:31;;;;;;;1.40;1.40;;;;;;;;;;5135042;27;20209;-64
2021/12/18 15:59:18;;;;;;;1.47;1.43;;;;;;;;;;5155454;27;20598;-64
2021/12/18 16:02:05;;;;;;;1.40;1.40;;;;;;;;;;5146320;27;20262;-65
2021/12/18 16:04:52;;;;;;;1.37;1.37;;;;;;;;;;5134178;27;20305;-64
2021/12/18 16:07:41;;;;;;;1.17;1.17;;;;;;;;;;5161529;27;20217;-64
2021/12/18 16:10:28;;;;;;;1.47;1.47;;;;;;;;;;5156007;27;20226;-65
2021/12/18 16:13:16;;;;;;;1.17;1.17;;;;;;;;;;5147484;27;20289;-65
2021/12/18 16:16:04;;;;;;;1.10;1.10;;;;;;;;;;5159789;27;20710;-64
2021/12/18 16:18:51;;;;;;;1.00;1.00;;;;;;;;;;5161388;27;20269;-65
2021/12/18 16:21:38;;;;;;;1.07;1.07;;;;;;;;;;5163614;27;20312;-65
2021/12/18 16:24:26;;;;;;;1.40;1.40;;;;;;;;;;5147724;27;20263;-64
2021/12/18 16:27:15;;;;;;;1.30;1.30;;;;;;;;;;5149288;27;20289;-64
2021/12/18 16:30:04;;;;;;;1.43;1.43;;;;;;;;;;5149473;27;20222;-65
2021/12/18 16:32:52;;;;;;;1.27;1.27;;;;;;;;;;5150631;27;20293;-64
2021/12/18 16:35:39;;;;;;;1.47;1.47;;;;;;;;;;5149380;27;20290;-64
2021/12/18 16:38:33;;;;;;;1.20;1.20;;;;;;;;;;5152124;27;20226;-64
2021/12/18 16:41:22;;;;;;;1.00;1.00;;;;;;;;;;5153271;27;20337;-64
2021/12/18 16:44:09;;;;;;;1.20;1.20;;;;;;;;;;5139068;27;20693;-64
2021/12/18 16:46:56;;;;;;;1.27;1.27;;;;;;;;;;5166194;27;20204;-64
2021/12/18 16:49:45;;;;;;;1.40;1.33;;;;;;;;;;5152040;27;20319;-64
2021/12/18 16:52:32;;;;;;;1.00;1.00;;;;;;;;;;5152745;27;20226;-64
2021/12/18 16:55:18;;;;;;;1.30;1.30;;;;;;;;;;5162550;27;20320;-64
2021/12/18 16:58:07;;;;;;;1.17;1.17;;;;;;;;;;5151913;27;20201;-64
2021/12/18 17:00:58;;;;;;;1.20;1.20;;;;;;;;;;5135795;27;20342;-64
2021/12/18 17:03:47;;;;;;;1.40;1.40;;;;;;;;;;5161007;27;20212;-64
2021/12/18 17:06:34;;;;;;;1.20;1.20;;;;;;;;;;5152620;27;20397;-65
2021/12/18 17:09:21;;;;;;;1.20;1.20;;;;;;;;;;5148195;27;20749;-64
2021/12/18 17:12:10;;;;;;;1.43;1.43;;;;;;;;;;5150262;27;20702;-64
2021/12/18 17:14:58;;;;;;;1.50;1.40;;;;;;;;;;5150591;27;20850;-65
2021/12/18 17:17:45;;;;;;;1.10;1.10;;;;;;;;;;5166769;27;20706;-64
2021/12/18 17:20:32;;;;;;;1.20;1.20;;;;;;;;;;5157716;27;20193;-64